createdAt,value
2022-09-13T00:00:38.606Z,100287.19
2022-09-13T00:03:07.488Z,100287.63
2022-09-13T00:05:36.149Z,100285.19
2022-09-13T00:08:04.209Z,100286.81
2022-09-13T00:10:32.995Z,100292.38
2022-09-13T00:13:00.468Z,100293.06
2022-09-13T00:15:28.129Z,100284.44
2022-09-13T00:17:55.973Z,100284.22
2022-09-13T00:20:24.912Z,100275.72
2022-09-13T00:22:52.382Z,100279.06
2022-09-13T00:25:20.208Z,100269.38
2022-09-13T00:27:48.084Z,100256.97
2022-09-13T00:30:15.608Z,100256.16
2022-09-13T00:32:43.021Z,100252.44
2022-09-13T00:35:10.852Z,100261.09
2022-09-13T00:37:39.762Z,100249.19
2022-09-13T00:40:08.536Z,100252.44
2022-09-13T00:42:35.972Z,100255.94
2022-09-13T00:45:16.157Z,100250.38
2022-09-13T00:47:47.732Z,100245.28
2022-09-13T00:50:19.125Z,100241.94
2022-09-13T00:52:50.646Z,100240.09
2022-09-13T00:55:21.215Z,100231.66
2022-09-13T00:57:48.825Z,100233.97
2022-09-13T01:00:19.493Z,100230.31
2022-09-13T01:02:50.942Z,100216.72
2022-09-13T01:05:19.477Z,100215.03
2022-09-13T01:07:48.413Z,100215.56
2022-09-13T01:10:15.879Z,100228.94
2022-09-13T01:12:48.372Z,100229.56
2022-09-13T01:15:16.209Z,100234.06
2022-09-13T01:17:44.478Z,100234.38
2022-09-13T01:20:12.971Z,100244.09
2022-09-13T01:23:11.539Z,100244.13
2022-09-13T01:25:51.288Z,100256.06
2022-09-13T01:28:27.671Z,100247.06
2022-09-13T01:31:00.204Z,100246.78
2022-09-13T01:33:38.479Z,100241.66
2022-09-13T01:36:34.357Z,100242.19
2022-09-13T01:39:05.191Z,100237.91
2022-09-13T01:41:49.300Z,100231.91
2022-09-13T01:44:28.372Z,100222.22
2022-09-13T01:47:02.052Z,100222.22
2022-09-13T01:49:34.067Z,100202.88
2022-09-13T01:52:03.081Z,100197.53
2022-09-13T01:54:35.485Z,100188.47
2022-09-13T01:57:09.077Z,100182.16
2022-09-13T01:59:40.243Z,100199.13
2022-09-13T02:02:11.752Z,100217.09
2022-09-13T02:04:41.953Z,100224.88
2022-09-13T02:07:14.842Z,100234.75
2022-09-13T02:09:45.099Z,100243.06
2022-09-13T02:12:16.956Z,100241.84
2022-09-13T02:14:45.637Z,100239.38
2022-09-13T02:17:16.815Z,100241.38
2022-09-13T02:19:48.871Z,100243.84
2022-09-13T02:22:19.318Z,100250.59
2022-09-13T02:24:49.604Z,100248.13
2022-09-13T02:27:20.569Z,100249.53
2022-09-13T02:29:50.849Z,100240.09
2022-09-13T02:32:23.439Z,100240.94
2022-09-13T02:34:54.906Z,100252.22
2022-09-13T02:37:22.820Z,100249.97
2022-09-13T02:39:53.211Z,100241.34
2022-09-13T02:42:22.986Z,100244.59
2022-09-13T02:44:52.709Z,100250.78
2022-09-13T02:47:33.695Z,100259.50
2022-09-13T02:50:09.145Z,100245.94
2022-09-13T02:52:42.526Z,100253.50
2022-09-13T02:55:17.633Z,100242.16
2022-09-13T02:57:53.415Z,100246.13
2022-09-13T03:00:21.038Z,100262.81
2022-09-13T03:02:50.464Z,100247.56
2022-09-13T03:05:18.451Z,100251.66
2022-09-13T03:07:45.888Z,100252.06
2022-09-13T03:10:15.919Z,100243.84
2022-09-13T03:12:53.232Z,100240.88
2022-09-13T03:15:26.523Z,100226.09
2022-09-13T03:18:03.942Z,100224.47
2022-09-13T03:20:37.932Z,100215.59
2022-09-13T03:23:19.569Z,100230.66
2022-09-13T03:26:07.700Z,100224.94
2022-09-13T03:28:39.883Z,100231.09
2022-09-13T03:31:10.258Z,100220.16
2022-09-13T03:33:44.901Z,100218.28
2022-09-13T03:36:15.612Z,100215.38
2022-09-13T03:38:46.733Z,100208.38
2022-09-13T03:41:17.194Z,100201.81
2022-09-13T03:43:47.399Z,100222.00
2022-09-13T03:46:18.656Z,100221.59
2022-09-13T03:48:48.302Z,100231.09
2022-09-13T03:51:16.029Z,100224.91
2022-09-13T03:53:46.380Z,100219.91
2022-09-13T03:56:15.075Z,100212.91
2022-09-13T03:58:43.850Z,100199.31
2022-09-13T04:01:11.554Z,100192.28
2022-09-13T04:03:39.350Z,100195.19
2022-09-13T04:06:09.576Z,100196.66
2022-09-13T04:08:37.073Z,100194.41
2022-09-13T04:11:04.875Z,100199.63
2022-09-13T04:13:32.337Z,100190.34
2022-09-13T04:16:02.273Z,100186.19
2022-09-13T04:18:29.728Z,100184.97
2022-09-13T04:20:58.693Z,100186.19
2022-09-13T04:23:28.412Z,100191.31
2022-09-13T04:25:56.307Z,100190.97
2022-09-13T04:28:23.766Z,100194.47
2022-09-13T04:30:51.188Z,100203.34
2022-09-13T04:33:18.635Z,100209.75
2022-09-13T04:35:46.055Z,100209.31
2022-09-13T04:38:13.614Z,100208.31
2022-09-13T04:40:42.787Z,100213.44
2022-09-13T04:43:10.195Z,100212.22
2022-09-13T04:45:38.086Z,100210.13
2022-09-13T04:48:05.618Z,100207.44
2022-09-13T04:50:33.019Z,100220.38
2022-09-13T04:53:00.419Z,100210.13
2022-09-13T04:55:27.829Z,100214.03
2022-09-13T04:57:57.115Z,100210.13
2022-09-13T05:00:26.199Z,100214.03
2022-09-13T05:02:56.373Z,100216.72
2022-09-13T05:05:25.681Z,100225.09
2022-09-13T05:07:53.665Z,100236.38
2022-09-13T05:10:21.449Z,100236.38
2022-09-13T05:12:48.935Z,100236.34
2022-09-13T05:15:17.910Z,100229.97
2022-09-13T05:17:45.376Z,100228.50
2022-09-13T05:20:12.781Z,100229.31
2022-09-13T05:22:40.219Z,100233.47
2022-09-13T05:25:09.122Z,100234.69
2022-09-13T05:27:36.552Z,100228.50
2022-09-13T05:30:05.008Z,100229.69
2022-09-13T05:32:33.783Z,100237.13
2022-09-13T05:35:01.230Z,100237.69
2022-09-13T05:37:28.669Z,100246.50
2022-09-13T05:40:12.482Z,100242.34
2022-09-13T05:42:40.302Z,100248.09
2022-09-13T05:45:09.327Z,100246.06
2022-09-13T05:47:38.154Z,100253.91
2022-09-13T05:50:11.858Z,100261.56
2022-09-13T05:52:43.517Z,100263.59
2022-09-13T05:55:11.530Z,100260.03
2022-09-13T05:57:39.397Z,100263.72
2022-09-13T06:00:08.047Z,100249.84
2022-09-13T06:02:35.547Z,100254.75
2022-09-13T06:05:04.789Z,100265.25
2022-09-13T06:07:32.302Z,100260.69
2022-09-13T06:09:59.830Z,100264.34
2022-09-13T06:12:27.254Z,100268.03
2022-09-13T06:14:54.747Z,100255.78
2022-09-13T06:17:22.211Z,100251.44
2022-09-13T06:19:49.649Z,100242.72
2022-09-13T06:22:18.490Z,100234.63
2022-09-13T06:24:45.933Z,100234.34
2022-09-13T06:27:13.383Z,100240.03
2022-09-13T06:29:40.823Z,100239.75
2022-09-13T06:32:08.287Z,100227.88
2022-09-13T06:34:35.737Z,100245.78
2022-09-13T06:37:04.012Z,100249.28
2022-09-13T06:39:34.169Z,100251.69
2022-09-13T06:42:01.649Z,100242.72
2022-09-13T06:44:29.178Z,100257.94
2022-09-13T06:46:56.607Z,100257.81
2022-09-13T06:49:24.040Z,100263.22
2022-09-13T06:51:51.495Z,100258.47
2022-09-13T06:54:18.983Z,100266.81
2022-09-13T06:56:47.762Z,100273.38
2022-09-13T06:59:15.225Z,100258.63
2022-09-13T07:01:44.705Z,100262.06
2022-09-13T07:04:13.294Z,100272.28
2022-09-13T07:06:42.422Z,100271.84
2022-09-13T07:09:12.390Z,100267.66
2022-09-13T07:11:41.931Z,100273.91
2022-09-13T07:14:14.443Z,100265.41
2022-09-13T07:16:41.877Z,100278.81
2022-09-13T07:19:13.727Z,100276.28
2022-09-13T07:21:41.356Z,100276.41
2022-09-13T07:24:09.043Z,100270.59
2022-09-13T07:26:37.020Z,100269.34
2022-09-13T07:29:06.267Z,100260.94
2022-09-13T07:31:36.819Z,100258.75
2022-09-13T07:34:05.783Z,100265.69
2022-09-13T07:36:34.463Z,100264.91
2022-09-13T07:39:02.619Z,100262.56
2022-09-13T07:41:31.349Z,100265.63
2022-09-13T07:43:59.222Z,100262.00
2022-09-13T07:46:28.076Z,100254.88
2022-09-13T07:48:57.780Z,100259.19
2022-09-13T07:51:26.687Z,100253.25
2022-09-13T07:53:57.728Z,100244.03
2022-09-13T07:56:26.926Z,100230.81
2022-09-13T07:58:55.838Z,100232.56
2022-09-13T08:01:24.981Z,100228.63
2022-09-13T08:03:54.222Z,100222.44
2022-09-13T08:06:23.206Z,100224.78
2022-09-13T08:08:50.635Z,100222.47
2022-09-13T08:11:20.043Z,100225.59
2022-09-13T08:13:48.334Z,100218.13
2022-09-13T08:16:16.566Z,100228.03
2022-09-13T08:18:45.224Z,100212.25
2022-09-13T08:21:12.816Z,100219.81
2022-09-13T08:23:42.054Z,100223.78
2022-09-13T08:26:10.674Z,100225.19
2022-09-13T08:28:39.645Z,100231.72
2022-09-13T08:31:08.223Z,100231.63
2022-09-13T08:33:36.084Z,100239.09
2022-09-13T08:36:04.637Z,100240.63
2022-09-13T08:38:33.061Z,100245.38
2022-09-13T08:41:06.023Z,100247.00
2022-09-13T08:43:41.935Z,100251.19
2022-09-13T08:46:14.056Z,100253.31
2022-09-13T08:48:44.726Z,100254.31
2022-09-13T08:51:25.517Z,100250.91
2022-09-13T08:53:53.004Z,100256.34
2022-09-13T08:56:24.435Z,100257.31
2022-09-13T08:59:04.023Z,100246.53
2022-09-13T09:01:42.153Z,100252.50
2022-09-13T09:04:16.569Z,100254.84
2022-09-13T09:06:44.294Z,100258.69
2022-09-13T09:09:16.179Z,100253.00
2022-09-13T09:11:50.367Z,100238.59
2022-09-13T09:14:22.239Z,100244.91
2022-09-13T09:16:52.863Z,100233.66
2022-09-13T09:19:24.159Z,100237.53
2022-09-13T09:21:52.287Z,100234.31
2022-09-13T09:24:22.776Z,100251.28
2022-09-13T09:26:51.960Z,100247.88
2022-09-13T09:29:24.856Z,100242.91
2022-09-13T09:31:59.908Z,100238.63
2022-09-13T09:34:42.491Z,100238.53
2022-09-13T09:37:15.887Z,100219.78
2022-09-13T09:39:43.739Z,100212.41
2022-09-13T09:42:14.409Z,100227.59
2022-09-13T09:44:42.278Z,100228.44
2022-09-13T09:47:13.395Z,100227.66
2022-09-13T09:50:02.617Z,100238.78
2022-09-13T09:52:32.682Z,100237.75
2022-09-13T09:55:07.424Z,100248.97
2022-09-13T09:57:52.005Z,100247.44
2022-09-13T10:00:20.953Z,100253.06
2022-09-13T10:02:49.700Z,100242.97
2022-09-13T10:05:20.562Z,100241.00
2022-09-13T10:07:55.180Z,100247.00
2022-09-13T10:10:25.731Z,100245.91
2022-09-13T10:12:56.905Z,100263.59
2022-09-13T10:15:26.759Z,100252.78
2022-09-13T10:18:40.086Z,100252.56
2022-09-13T10:21:05.743Z,100251.53
2022-09-13T10:23:34.231Z,100251.75
2022-09-13T10:26:05.819Z,100258.03
2022-09-13T10:28:36.959Z,100260.94
2022-09-13T10:31:06.420Z,100251.75
2022-09-13T10:33:36.766Z,100243.75
2022-09-13T10:36:06.579Z,100244.81
2022-09-13T10:38:37.636Z,100245.22
2022-09-13T10:41:07.540Z,100254.44
2022-09-13T10:43:37.118Z,100256.34
2022-09-13T10:46:06.104Z,100256.53
2022-09-13T10:48:48.396Z,100252.00
2022-09-13T10:51:38.421Z,100261.03
2022-09-13T10:54:17.311Z,100262.06
2022-09-13T10:56:45.169Z,100259.16
2022-09-13T10:59:22.054Z,100251.72
2022-09-13T11:01:57.932Z,100257.50
2022-09-13T11:04:54.652Z,100246.13
2022-09-13T11:07:38.589Z,100245.00
2022-09-13T11:10:11.551Z,100244.25
2022-09-13T11:12:42.270Z,100246.66
2022-09-13T11:15:20.883Z,100245.84
2022-09-13T11:18:04.414Z,100234.63
2022-09-13T11:20:39.168Z,100229.06
2022-09-13T11:23:23.884Z,100221.69
2022-09-13T11:26:13.782Z,100227.13
2022-09-13T11:29:02.775Z,100231.03
2022-09-13T11:31:39.694Z,100231.69
2022-09-13T11:34:17.209Z,100237.22
2022-09-13T11:36:58.102Z,100225.34
2022-09-13T11:39:32.262Z,100220.31
2022-09-13T11:42:08.548Z,100214.31
2022-09-13T11:44:50.417Z,100202.94
2022-09-13T11:47:29.101Z,100200.81
2022-09-13T11:50:04.906Z,100194.72
2022-09-13T11:52:42.221Z,100186.63
2022-09-13T11:55:16.358Z,100188.41
2022-09-13T11:57:46.501Z,100205.66
2022-09-13T12:00:21.049Z,100199.53
2022-09-13T12:02:53.942Z,100201.69
2022-09-13T12:05:23.833Z,100191.16
2022-09-13T12:07:55.085Z,100197.09
2022-09-13T12:10:26.672Z,100199.97
2022-09-13T12:12:55.734Z,100180.09
2022-09-13T12:15:28.696Z,100183.09
2022-09-13T12:18:01.662Z,100175.41
2022-09-13T12:20:33.498Z,100182.56
2022-09-13T12:23:03.148Z,100172.66
2022-09-13T12:25:38.596Z,100171.09
2022-09-13T12:28:11.352Z,100162.47
2022-09-13T12:30:43.702Z,100154.03
2022-09-13T12:33:14.997Z,100154.28
2022-09-13T12:35:49.554Z,100154.81
2022-09-13T12:38:38.964Z,100162.94
2022-09-13T12:41:25.606Z,100158.09
2022-09-13T12:44:13.953Z,100143.44
2022-09-13T12:46:56.266Z,100153.72
2022-09-13T12:49:52.575Z,100158.09
2022-09-13T12:52:29.560Z,100160.78
2022-09-13T12:55:45.475Z,100159.97
2022-09-13T12:58:28.729Z,100161.44
2022-09-13T13:01:08.242Z,100160.28
2022-09-13T13:03:37.172Z,100151.69
2022-09-13T13:06:21.548Z,100157.34
2022-09-13T13:08:51.877Z,100153.63
2022-09-13T13:11:21.843Z,100150.38
2022-09-13T13:13:56.772Z,100155.00
2022-09-13T13:16:28.411Z,100144.81
2022-09-13T13:18:57.166Z,100147.78
2022-09-13T13:21:41.274Z,100142.16
2022-09-13T13:24:54.407Z,100141.09
2022-09-13T13:27:43.780Z,100131.09
2022-09-13T13:30:56.252Z,100135.75
2022-09-13T13:33:27.609Z,100130.34
2022-09-13T13:35:55.358Z,100135.78
2022-09-13T13:38:42.874Z,100123.84
2022-09-13T13:41:38.185Z,100114.84
2022-09-13T13:44:39.018Z,100112.44
2022-09-13T13:47:42.480Z,100110.28
2022-09-13T13:50:15.993Z,100111.09
2022-09-13T13:52:54.868Z,100104.03
2022-09-13T13:55:41.933Z,100096.16
2022-09-13T13:58:32.823Z,100098.16
2022-09-13T14:01:01.795Z,100101.94
2022-09-13T14:03:37.353Z,100100.88
2022-09-13T14:06:12.425Z,100089.53
2022-09-13T14:08:47.424Z,100095.19
2022-09-13T14:11:26.064Z,100086.81
2022-09-13T14:14:01.820Z,100085.44
2022-09-13T14:16:40.090Z,100092.19
2022-09-13T14:19:21.264Z,100089.22
2022-09-13T14:22:06.114Z,100090.50
2022-09-13T14:24:37.775Z,100091.28
2022-09-13T14:27:09.565Z,100102.88
2022-09-13T14:29:37.231Z,100092.59
2022-09-13T14:32:06.986Z,100088.00
2022-09-13T14:34:38.024Z,100080.19
2022-09-13T14:37:07.853Z,100078.56
2022-09-13T14:39:35.347Z,100073.72
2022-09-13T14:42:04.430Z,100072.06
2022-09-13T14:44:33.229Z,100073.41
2022-09-13T14:47:05.793Z,100072.47
2022-09-13T14:49:36.415Z,100071.13
2022-09-13T14:52:05.605Z,100069.56
2022-09-13T14:54:37.629Z,100061.19
2022-09-13T14:57:07.287Z,100052.78
2022-09-13T14:59:42.967Z,100041.97
2022-09-13T15:02:19.652Z,100040.31
2022-09-13T15:04:53.494Z,100046.00
2022-09-13T15:07:24.024Z,100052.50
2022-09-13T15:09:51.784Z,100047.03
2022-09-13T15:12:25.966Z,100041.31
2022-09-13T15:15:23.516Z,100030.75
2022-09-13T15:17:57.025Z,100029.69
2022-09-13T15:20:25.748Z,100023.44
2022-09-13T15:22:54.119Z,100027.25
2022-09-13T15:25:24.565Z,100021.28
2022-09-13T15:27:52.327Z,100025.59
2022-09-13T15:30:28.366Z,100023.41
2022-09-13T15:33:14.872Z,100019.09
2022-09-13T15:35:44.145Z,100018.78
2022-09-13T15:38:19.080Z,100015.28
2022-09-13T15:40:48.397Z,100020.69
2022-09-13T15:43:15.951Z,100012.59
2022-09-13T15:45:43.744Z,100009.09
2022-09-13T15:48:19.099Z,99999.66
2022-09-13T15:51:05.649Z,100004.53
2022-09-13T15:53:33.374Z,100003.69
2022-09-13T15:56:02.409Z,99999.38
2022-09-13T15:58:30.641Z,99997.47
2022-09-13T16:00:58.547Z,100003.44
2022-09-13T16:03:27.595Z,100008.28
2022-09-13T16:06:03.323Z,100008.81
2022-09-13T16:08:31.048Z,100006.91
2022-09-13T16:10:58.818Z,100006.91
2022-09-13T16:13:26.394Z,99998.53
2022-09-13T16:15:57.730Z,99999.59
2022-09-13T16:18:27.151Z,99987.16
2022-09-13T16:20:55.043Z,99977.41
2022-09-13T16:23:22.601Z,99983.66
2022-09-13T16:25:51.617Z,99974.44
2022-09-13T16:28:21.182Z,99971.16
2022-09-13T16:30:48.969Z,99980.66
2022-09-13T16:33:16.733Z,99975.75
2022-09-13T16:35:45.854Z,99972.22
2022-09-13T16:38:13.871Z,99980.03
2022-09-13T16:40:45.124Z,99995.72
2022-09-13T16:43:13.581Z,99992.72
2022-09-13T16:45:42.906Z,100002.75
2022-09-13T16:48:10.605Z,100003.28
2022-09-13T16:50:41.018Z,99990.81
2022-09-13T16:53:10.377Z,99991.88
2022-09-13T16:55:38.059Z,99994.56
2022-09-13T16:58:05.716Z,100011.84
2022-09-13T17:00:33.475Z,100004.78
2022-09-13T17:03:01.387Z,100000.47
2022-09-13T17:05:29.028Z,99994.53
2022-09-13T17:07:56.612Z,99996.66
2022-09-13T17:10:25.587Z,99992.03
2022-09-13T17:12:53.628Z,99996.63
2022-09-13T17:15:21.262Z,100000.03
2022-09-13T17:17:48.713Z,100002.16
2022-09-13T17:20:16.172Z,100014.91
2022-09-13T17:22:43.622Z,100015.41
2022-09-13T17:25:11.431Z,100019.72
2022-09-13T17:27:40.233Z,100012.97
2022-09-13T17:30:09.403Z,100012.19
2022-09-13T17:32:37.153Z,100005.16
2022-09-13T17:35:05.646Z,100011.09
2022-09-13T17:37:33.465Z,100013.69
2022-09-13T17:40:01.189Z,100010.66
2022-09-13T17:42:28.790Z,100015.22
2022-09-13T17:44:57.866Z,100013.34
2022-09-13T17:47:25.535Z,100023.84
2022-09-13T17:49:53.654Z,100023.84
2022-09-13T17:52:21.302Z,100021.13
2022-09-13T17:54:50.258Z,100021.41
2022-09-13T17:57:17.790Z,100014.88
2022-09-13T17:59:47.355Z,100010.28
2022-09-13T18:02:16.654Z,100005.31
2022-09-13T18:04:44.445Z,100007.72
2022-09-13T18:07:12.859Z,100010.13
2022-09-13T18:09:41.387Z,100007.38
2022-09-13T18:12:09.501Z,100023.41
2022-09-13T18:14:37.170Z,100022.38
2022-09-13T18:17:12.790Z,100009.47
2022-09-13T18:19:46.692Z,99996.53
2022-09-13T18:22:14.795Z,100003.22
2022-09-13T18:24:45.941Z,100001.56
2022-09-13T18:27:13.519Z,99997.00
2022-09-13T18:29:46.176Z,99991.38
2022-09-13T18:32:14.704Z,99983.75
2022-09-13T18:34:45.699Z,99980.47
2022-09-13T18:40:06.994Z,99976.34
2022-09-13T18:42:34.646Z,99976.84
2022-09-13T18:45:02.334Z,99981.13
2022-09-13T18:47:29.931Z,99985.72
2022-09-13T18:49:59.274Z,99985.47
2022-09-13T18:52:27.010Z,99985.50
2022-09-13T18:54:54.665Z,99994.25
2022-09-13T18:57:22.369Z,99994.41
2022-09-13T18:59:50.027Z,99992.78
2022-09-13T19:02:17.953Z,99986.56
2022-09-13T19:04:45.787Z,99983.56
2022-09-13T19:07:15.167Z,99988.69
2022-09-13T19:09:43.230Z,99999.56
2022-09-13T19:12:11.107Z,100000.88
2022-09-13T19:14:38.810Z,100007.84
2022-09-13T19:17:06.768Z,100004.88
2022-09-13T19:19:35.566Z,100003.13
2022-09-13T19:22:03.553Z,99995.41
2022-09-13T19:24:35.060Z,100000.22
2022-09-13T19:27:02.610Z,99994.34
2022-09-13T19:29:30.628Z,99980.06
2022-09-13T19:31:58.684Z,99987.19
2022-09-13T19:34:26.959Z,99982.91
2022-09-13T19:36:58.219Z,99979.84
2022-09-13T19:39:29.541Z,99980.34
2022-09-13T19:42:00.783Z,99973.91
2022-09-13T19:44:31.522Z,99987.41
2022-09-13T19:49:50.006Z,100004.03
2022-09-13T19:52:18.231Z,99999.22
2022-09-13T19:54:46.193Z,99999.59
2022-09-13T19:57:15.474Z,100000.28
2022-09-13T19:59:43.409Z,99995.56
2022-09-13T20:02:11.740Z,100002.53
2022-09-13T20:04:39.625Z,99991.44
2022-09-13T20:07:11.978Z,99987.25
2022-09-13T20:09:44.332Z,99993.25
2022-09-13T20:12:12.805Z,99992.84
2022-09-13T20:14:41.996Z,99989.03
2022-09-13T20:17:12.268Z,99991.19
2022-09-13T20:19:43.612Z,99987.41
2022-09-13T20:22:14.509Z,99977.47
2022-09-13T20:24:42.986Z,99979.84
2022-09-13T20:27:10.977Z,99990.03
2022-09-13T20:29:38.812Z,99985.16
2022-09-13T20:32:09.101Z,99993.81
2022-09-13T20:34:37.913Z,99993.25
2022-09-13T20:37:09.736Z,100001.78
2022-09-13T20:39:37.341Z,100007.53
2022-09-13T20:42:06.756Z,100005.56
2022-09-13T20:44:34.407Z,99995.38
2022-09-13T20:47:02.157Z,99994.44
2022-09-13T20:49:31.301Z,99990.03
2022-09-13T20:51:59.287Z,99997.38
2022-09-13T20:54:26.877Z,99991.19
2022-09-13T20:56:54.436Z,99988.75
2022-09-13T20:59:22.645Z,99981.69
2022-09-13T21:01:50.229Z,99977.13
2022-09-13T21:04:18.268Z,99968.53
2022-09-13T21:07:01.125Z,99965.53
2022-09-13T21:09:28.812Z,99964.97
2022-09-13T21:11:56.363Z,99969.28
2022-09-13T21:14:23.890Z,99962.03
2022-09-13T21:16:51.531Z,99952.88
2022-09-13T21:19:19.498Z,99948.31
2022-09-13T21:21:48.608Z,99950.75
2022-09-13T21:24:16.115Z,99948.06
2022-09-13T21:26:43.669Z,99955.06
2022-09-13T21:29:12.320Z,99959.94
2022-09-13T21:31:40.738Z,99951.41
2022-09-13T21:34:12.920Z,99964.13
2022-09-13T21:36:40.512Z,99956.50
2022-09-13T21:39:09.726Z,99943.78
2022-09-13T21:41:37.635Z,99942.75
2022-09-13T21:44:05.692Z,99924.94
2022-09-13T21:46:35.158Z,99923.81
2022-09-13T21:49:04.762Z,99922.19
2022-09-13T21:51:34.251Z,99915.97
2022-09-13T21:54:05.483Z,99925.41
2022-09-13T21:56:37.084Z,99924.69
2022-09-13T21:59:08.642Z,99930.56
2022-09-13T22:01:39.152Z,99932.91
2022-09-13T22:04:08.702Z,99926.19
2022-09-13T22:06:38.274Z,99933.16
2022-09-13T22:09:08.722Z,99924.31
2022-09-13T22:11:40.169Z,99921.63
2022-09-13T22:14:09.694Z,99918.38
2022-09-13T22:16:40.321Z,99907.59
2022-09-13T22:19:10.642Z,99897.34
2022-09-13T22:21:41.834Z,99892.63
2022-09-13T22:24:12.683Z,99898.13
2022-09-13T22:26:41.681Z,99894.53
2022-09-13T22:29:09.782Z,99876.47
2022-09-13T22:31:39.584Z,99872.09
2022-09-13T22:34:08.874Z,99867.72
2022-09-13T22:36:36.296Z,99865.47
2022-09-13T22:39:04.825Z,99873.03
2022-09-13T22:41:33.838Z,99871.34
2022-09-13T22:44:03.499Z,99877.53
2022-09-13T22:46:32.548Z,99879.47
2022-09-13T22:49:00.543Z,99880.56
2022-09-13T22:51:28.597Z,99885.66
2022-09-13T22:53:56.688Z,99885.56
2022-09-13T22:56:26.481Z,99886.16
2022-09-13T22:58:55.049Z,99887.06
2022-09-13T23:01:24.987Z,99893.47
2022-09-13T23:03:52.807Z,99882.09
2022-09-13T23:06:23.075Z,99880.66
2022-09-13T23:08:51.665Z,99879.56
2022-09-13T23:11:21.144Z,99863.13
2022-09-13T23:13:49.927Z,99863.16
2022-09-13T23:16:18.811Z,99861.06
2022-09-13T23:18:48.220Z,99856.72
2022-09-13T23:21:18.114Z,99848.91
2022-09-13T23:23:45.611Z,99854.50
2022-09-13T23:26:17.290Z,99845.56
2022-09-13T23:28:45.971Z,99852.66
2022-09-13T23:31:14.903Z,99848.03
2022-09-13T23:33:43.516Z,99848.38
2022-09-13T23:36:13.236Z,99858.63
2022-09-13T23:38:41.465Z,99851.34
2022-09-13T23:41:10.605Z,99859.94
2022-09-13T23:43:38.029Z,99863.16
2022-09-13T23:46:05.521Z,99867.41
2022-09-13T23:48:34.686Z,99871.22
2022-09-13T23:51:03.331Z,99885.66
2022-09-13T23:53:32.191Z,99907.13
2022-09-13T23:56:00.002Z,99916.69
2022-09-13T23:58:28.776Z,99910.63
